WetterOnline ( https://www.wetteronline.de )

Wetter aktuell Bad Wimpfen

Aktuelles Wetter: Waibstadt (237m)

6-stündlich | Neueste Meldungen
Ortszeit Temperatur Wetter
Do, 02.07. 20:00 21.3° C bedeckt
Do, 02.07. 14:00 20.6° C bewölkt
Do, 02.07. 8:00 16.7° C Sprühregen
Do, 02.07. 2:00 21.1° C wolkig
Mi, 01.07. 20:00 26.9° C wolkenlos
Mi, 01.07. 14:00 25.5° C leicht bewölkt
Mi, 01.07. 8:00 16.8° C wolkenlos
Mi, 01.07. 2:00 14.5° C wolkenlos
Ortszeit Temperatur Wetter
Fr, 03.07. 1:00 16.8° C bewölkt
Fr, 03.07. 0:50 16.8° C bewölkt
Fr, 03.07. 0:40 16.8° C bewölkt
Fr, 03.07. 0:30 17.0° C wolkig
Fr, 03.07. 0:20 17.0° C wolkig
Fr, 03.07. 0:10 17.0° C wolkig
Fr, 03.07. 0:00 17.4° C bewölkt
Do, 02.07. 23:30 18.1° C bedeckt
Do, 02.07. 23:00 18.5° C wolkig
Do, 02.07. 22:30 18.9° C wolkig
Do, 02.07. 22:00 19.7° C bedeckt
Ortszeit Relative Feuchte Sichtweite
Do, 02.07. 20:00 50% 65 km
Do, 02.07. 14:00 70% 65 km
Do, 02.07. 8:00 93% 23 km
Do, 02.07. 2:00 70% 60 km
Mi, 01.07. 20:00 48% 55 km
Mi, 01.07. 14:00 55% 50 km
Mi, 01.07. 8:00 79% 45 km
Mi, 01.07. 2:00 90% 50 km
Ortszeit Relative Feuchte Sichtweite
Fr, 03.07. 1:00 66% 55 km
Fr, 03.07. 0:50 66% -
Fr, 03.07. 0:40 66% -
Fr, 03.07. 0:30 65% >70 km
Fr, 03.07. 0:20 65% -
Fr, 03.07. 0:10 65% -
Fr, 03.07. 0:00 63% 65 km
Do, 02.07. 23:30 60% 65 km
Do, 02.07. 23:00 60% 65 km
Do, 02.07. 22:30 58% 65 km
Do, 02.07. 22:00 59% 60 km
Ortszeit Niederschlagsmenge Niederschlagsart
Do, 02.07. 20:00 0.1 l/m2 in 12 Std. -
Do, 02.07. 14:00 0.1 l/m2 in 6 Std. Regen
Do, 02.07. 8:00 2 l/m2 in 12 Std. Regen
Do, 02.07. 2:00 0.0 l/m2 in 6 Std. -
Mi, 01.07. 20:00 0.0 l/m2 in 12 Std. -
Mi, 01.07. 14:00 0.0 l/m2 in 6 Std. -
Mi, 01.07. 8:00 0.0 l/m2 in 12 Std. -
Mi, 01.07. 2:00 0.0 l/m2 in 6 Std. -
Ortszeit Niederschlagsmenge Niederschlagsart
Fr, 03.07. 1:00 0.0 l/m2 in 1 Std. -
Fr, 03.07. 0:50 keine Meldung -
Fr, 03.07. 0:40 keine Meldung -
Fr, 03.07. 0:30 0.0 l/m2 in 1 Std. -
Fr, 03.07. 0:20 keine Meldung -
Fr, 03.07. 0:10 keine Meldung -
Fr, 03.07. 0:00 0.0 l/m2 in 1 Std. -
Do, 02.07. 23:30 0.0 l/m2 in 1 Std. -
Do, 02.07. 23:00 0.0 l/m2 in 1 Std. -
Do, 02.07. 22:30 0.0 l/m2 in 1 Std. -
Do, 02.07. 22:00 0.0 l/m2 in 1 Std. -
Ortszeit Stärke Spitze Richtung
km/h Bft. km/h Grad Sektor
Do, 02.07. 20:00 14 3 40 260° W
Do, 02.07. 14:00 13 3 30 220° SW
Do, 02.07. 8:00 4 1 25 190° S
Do, 02.07. 2:00 11 2 25 260° W
Mi, 01.07. 20:00 11 2 36 290° W
Mi, 01.07. 14:00 20 4 39 260° W
Mi, 01.07. 8:00 4 1 7 100° O
Mi, 01.07. 2:00 0 0 25 - -
Ortszeit Stärke Spitze Richtung
km/h Bft. km/h Grad Sektor
Fr, 03.07. 1:00 4 1 14 310° NW
Fr, 03.07. 0:50 4 1 - 310° NW
Fr, 03.07. 0:40 4 1 - 330° NW
Fr, 03.07. 0:30 7 2 14 330° NW
Fr, 03.07. 0:20 7 2 - 330° NW
Fr, 03.07. 0:10 6 1 - 330° NW
Fr, 03.07. 0:00 7 2 22 330° NW
Do, 02.07. 23:30 9 2 20 330° NW
Do, 02.07. 23:00 9 2 30 320° NW
Do, 02.07. 22:30 11 2 29 290° W
Do, 02.07. 22:00 11 2 32 300° NW
Ortszeit Untergrenze Bedeckung Gattung
total tief tief mittel hoch
Do, 02.07. 20:00 4500 m 8/8 8/8 - - -
Do, 02.07. 14:00 1800 m 7/8 7/8 - - -
Do, 02.07. 8:00 540 m 8/8 8/8 - - -
Do, 02.07. 2:00 1500 m 6/8 5/8 - - -
Mi, 01.07. 20:00 9000 m 0/8 0/8 - - -
Mi, 01.07. 14:00 1350 m 2/8 1/8 - - -
Mi, 01.07. 8:00 - 0/8 0/8 - - -
Mi, 01.07. 2:00 - 0/8 0/8 - - -
Ortszeit Bedeckungsgrad in Achtel und Wolkenuntergrenze
Fr, 03.07. 1:00 4(1500m) 8(5700m) 8(8100m)
Fr, 03.07. 0:50 4(1500m) 8(5700m) 8(8100m)
Fr, 03.07. 0:40 6(1500m) 7(2400m) 8(8100m)
Fr, 03.07. 0:30 3(1500m) 7(6300m) 8(8100m)
Fr, 03.07. 0:20 3(1500m) 7(6300m) 8(8100m)
Fr, 03.07. 0:10 3(2400m) 8(6600m) 8(8100m)
Fr, 03.07. 0:00 4(2400m) 8(6000m) 8(8100m)
Do, 02.07. 23:30 7(2100m) 8(2400m) 8(6000m)
Do, 02.07. 23:00 3(2100m) 8(5100m) 8(9000m)
Do, 02.07. 22:30 1(1500m) 8(4800m) 8(6300m)
Do, 02.07. 22:00 7(1500m) 8(2400m) 8(4800m)
Ortszeit Luftdruck NN (hPa) Tendenz (hPa in 3 Std.)
Do, 02.07. 20:00 1012 + 0,5
Do, 02.07. 14:00 1013 - 0,1
Do, 02.07. 8:00 1012 + 1,5
Do, 02.07. 2:00 1010 + 0,8
Mi, 01.07. 20:00 1007 - 0,3
Mi, 01.07. 14:00 1009 - 0,8
Mi, 01.07. 8:00 1011 - 0,3
Mi, 01.07. 2:00 1012 - 0,2
Ortszeit Luftdruck NN (hPa) Tendenz (hPa in 3 Std.)
Fr, 03.07. 1:00 1016 + 1,8
Fr, 03.07. 0:50 1016 keine Meldung
Fr, 03.07. 0:40 1016 keine Meldung
Fr, 03.07. 0:30 1016 + 2,2
Fr, 03.07. 0:20 1016 keine Meldung
Fr, 03.07. 0:10 1016 keine Meldung
Fr, 03.07. 0:00 1016 + 2,4
Do, 02.07. 23:30 1016 + 2,5
Do, 02.07. 23:00 1015 + 2,7
Do, 02.07. 22:30 1015 + 2,3
Do, 02.07. 22:00 1014 + 2,3
Ortszeit Schneehöhe (cm)
Do, 02.07. 20:00 -
Do, 02.07. 14:00 -
Do, 02.07. 8:00 -
Do, 02.07. 2:00 -
Mi, 01.07. 20:00 -
Mi, 01.07. 14:00 -
Mi, 01.07. 8:00 -
Mi, 01.07. 2:00 -
Ortszeit Schneehöhe (cm)
Fr, 03.07. 1:00 -
Fr, 03.07. 0:50 -
Fr, 03.07. 0:40 -
Fr, 03.07. 0:30 -
Fr, 03.07. 0:20 -
Fr, 03.07. 0:10 -
Fr, 03.07. 0:00 -
Do, 02.07. 23:30 -
Do, 02.07. 23:00 -
Do, 02.07. 22:30 -
Do, 02.07. 22:00 -
Link zu dieser Seite / Seite empfehlen

Das Wetter in ...